Time;durP1;ratioP1;P1;durP2;ratioP2;P2;SDS_P1;SDS_P2;PMS_P1;PMS_P2;Temp;Humidity;BMP_temperature;BMP_pressure;BME280_temperature;BME280_humidity;BME280_pressure;Samples;Min_cycle;Max_cycle;Signal;HPM_P1;HPM_P2
2022/06/25 00:02:12;;;;;;;7.15;6.55;;;;;;;18.20;100.00;100291.56;5014651;28;20148;-84
2022/06/25 00:07:22;;;;;;;6.50;6.00;;;;;;;18.15;100.00;100307.66;5008763;28;20048;-84
2022/06/25 00:09:50;;;;;;;6.70;6.07;;;;;;;18.16;100.00;100311.16;5014878;28;20084;-83
2022/06/25 00:12:36;;;;;;;7.18;6.30;;;;;;;18.26;100.00;100307.16;4994437;28;20061;-84
2022/06/25 00:15:08;;;;;;;7.80;6.60;;;;;;;18.36;100.00;100315.56;5012979;28;20045;-85
2022/06/25 00:17:35;;;;;;;6.43;5.88;;;;;;;18.41;100.00;100310.91;5012269;28;20041;-83
2022/06/25 00:20:04;;;;;;;7.20;6.60;;;;;;;18.40;100.00;100301.22;4989935;28;20065;-85
2022/06/25 00:22:31;;;;;;;6.82;6.10;;;;;;;18.39;100.00;100307.44;5004990;28;20053;-83
2022/06/25 00:24:57;;;;;;;7.00;6.40;;;;;;;18.39;100.00;100312.75;5007423;28;20042;-84
2022/06/25 00:27:27;;;;;;;6.28;5.78;;;;;;;18.41;100.00;100325.94;5005913;28;21071;-83
2022/06/25 00:29:54;;;;;;;7.07;6.47;;;;;;;18.40;100.00;100327.72;5012606;28;20045;-82
2022/06/25 00:32:21;;;;;;;6.97;6.47;;;;;;;18.41;100.00;100329.44;4991652;28;20060;-83
2022/06/25 00:34:49;;;;;;;5.50;5.07;;;;;;;18.44;100.00;100323.16;5012177;28;20093;-82
2022/06/25 00:37:17;;;;;;;5.57;5.03;;;;;;;18.41;100.00;100333.88;5011485;28;20052;-84
2022/06/25 00:39:44;;;;;;;6.88;6.28;;;;;;;18.37;100.00;100343.78;5011472;28;20041;-82
2022/06/25 00:42:13;;;;;;;4.95;4.50;;;;;;;18.34;100.00;100344.78;5027978;28;20042;-82
2022/06/25 00:44:46;;;;;;;6.30;5.68;;;;;;;18.34;100.00;100343.91;5028130;28;20121;-82
2022/06/25 00:47:14;;;;;;;6.65;6.05;;;;;;;18.33;100.00;100343.06;4994593;28;20523;-83
2022/06/25 00:49:43;;;;;;;6.55;5.95;;;;;;;18.33;100.00;100344.88;5007000;28;20092;-83
2022/06/25 00:52:17;;;;;;;6.10;5.50;;;;;;;18.36;100.00;100350.00;5008210;28;20120;-84
2022/06/25 00:54:54;;;;;;;5.38;4.93;;;;;;;18.38;100.00;100353.44;5005763;28;20904;-83
2022/06/25 00:57:27;;;;;;;5.22;4.80;;;;;;;18.38;100.00;100348.13;4992774;28;20041;-82
2022/06/25 01:00:00;;;;;;;6.72;5.90;;;;;;;18.34;100.00;100341.25;5012726;28;20095;-82
2022/06/25 01:02:27;;;;;;;5.88;5.38;;;;;;;18.26;100.00;100351.34;5013766;28;20078;-83
2022/06/25 01:04:54;;;;;;;9.15;5.15;;;;;;;18.18;100.00;100354.34;5007784;28;20037;-83
2022/06/25 01:07:21;;;;;;;7.85;7.05;;;;;;;18.11;100.00;100345.00;5010897;28;20042;-83
2022/06/25 01:09:54;;;;;;;7.85;7.03;;;;;;;18.06;100.00;100337.22;5009477;28;20053;-84
2022/06/25 01:12:21;;;;;;;10.18;9.10;;;;;;;18.00;100.00;100335.72;5006888;28;20049;-82
2022/06/25 01:15:07;;;;;;;7.57;6.88;;;;;;;17.98;100.00;100339.38;4994715;28;20046;-82
2022/06/25 01:17:47;;;;;;;7.38;6.63;;;;;;;17.95;100.00;100339.50;4993055;28;20049;-83
2022/06/25 01:20:17;;;;;;;6.85;5.55;;;;;;;17.93;100.00;100334.28;4991542;28;20524;-83
2022/06/25 01:22:53;;;;;;;7.82;7.03;;;;;;;17.93;100.00;100336.06;5009087;28;20058;-81
2022/06/25 01:25:20;;;;;;;5.65;5.25;;;;;;;17.89;100.00;100348.56;4993921;28;20770;-83
2022/06/25 01:27:48;;;;;;;5.97;5.38;;;;;;;17.88;100.00;100351.28;5013255;28;20068;-84
2022/06/25 01:30:16;;;;;;;5.85;5.35;;;;;;;17.86;100.00;100352.19;4996312;28;20077;-84
2022/06/25 01:32:43;;;;;;;5.72;5.32;;;;;;;17.84;100.00;100346.09;5014638;28;20045;-84
2022/06/25 01:35:10;;;;;;;5.30;4.90;;;;;;;17.80;100.00;100348.97;5021076;28;20049;-84
2022/06/25 01:37:38;;;;;;;6.72;5.68;;;;;;;17.79;100.00;100350.72;4997222;28;20468;-83
2022/06/25 01:40:05;;;;;;;6.13;5.72;;;;;;;17.78;100.00;100348.16;5009377;28;20041;-83
2022/06/25 01:45:17;;;;;;;5.47;5.05;;;;;;;17.69;100.00;100345.00;4999723;28;20048;-83
2022/06/25 01:47:44;;;;;;;5.85;5.45;;;;;;;17.65;100.00;100351.34;5019431;28;20540;-82
2022/06/25 01:50:12;;;;;;;6.15;5.43;;;;;;;17.65;100.00;100351.34;4992180;28;20534;-83
2022/06/25 01:52:40;;;;;;;5.93;5.35;;;;;;;17.65;100.00;100359.28;4994622;28;20034;-82
2022/06/25 01:55:10;;;;;;;5.95;5.55;;;;;;;17.64;100.00;100362.88;4993551;28;20049;-83
2022/06/25 01:57:37;;;;;;;6.55;5.68;;;;;;;17.63;100.00;100370.88;5009956;28;20049;-84
2022/06/25 02:00:16;;;;;;;7.13;6.38;;;;;;;17.62;100.00;100370.00;4997106;28;20049;-83
2022/06/25 02:02:44;;;;;;;5.68;5.18;;;;;;;17.61;100.00;100362.13;5015758;28;20053;-82
2022/06/25 02:05:14;;;;;;;6.72;6.20;;;;;;;17.62;100.00;100374.44;5010146;28;20592;-84
2022/06/25 02:07:41;;;;;;;6.72;6.13;;;;;;;17.61;100.00;100378.00;4993583;28;20050;-85
2022/06/25 02:10:10;;;;;;;9.93;5.97;;;;;;;17.62;100.00;100385.03;5010015;28;20492;-84
2022/06/25 02:12:37;;;;;;;6.20;5.70;;;;;;;17.59;100.00;100374.59;5008563;28;20052;-83
2022/06/25 02:15:06;;;;;;;6.55;6.05;;;;;;;17.61;100.00;100370.06;4995568;28;20042;-82
2022/06/25 02:17:34;;;;;;;6.90;6.38;;;;;;;17.64;100.00;100377.91;4995401;28;20095;-81
2022/06/25 02:20:01;;;;;;;7.07;6.43;;;;;;;17.64;100.00;100381.38;5009334;28;20057;-83
2022/06/25 02:22:28;;;;;;;5.90;5.38;;;;;;;17.66;100.00;100383.97;5009789;28;20050;-81
2022/06/25 02:24:56;;;;;;;6.45;5.85;;;;;;;17.62;100.00;100375.28;5013593;28;20049;-82
2022/06/25 02:27:23;;;;;;;6.82;6.25;;;;;;;17.62;100.00;100393.81;4999229;28;20133;-84
2022/06/25 02:29:50;;;;;;;5.63;5.18;;;;;;;17.62;100.00;100392.97;5016248;28;20038;-81
2022/06/25 02:32:17;;;;;;;6.32;5.78;;;;;;;17.67;100.00;100401.56;5003303;28;20067;-83
2022/06/25 02:34:45;;;;;;;9.35;6.47;;;;;;;17.76;100.00;100393.25;4999802;28;20463;-83
2022/06/25 02:37:12;;;;;;;7.38;6.68;;;;;;;17.80;100.00;100393.97;5018879;28;20114;-85
2022/06/25 02:39:38;;;;;;;8.07;5.80;;;;;;;17.80;100.00;100393.97;5011605;28;20148;-84
2022/06/25 02:42:06;;;;;;;5.00;4.70;;;;;;;17.77;100.00;100394.09;5012991;28;20065;-83
2022/06/25 02:44:33;;;;;;;6.10;5.60;;;;;;;17.71;100.00;100389.94;5018923;28;20494;-85
2022/06/25 02:47:01;;;;;;;5.60;5.10;;;;;;;17.69;100.00;100390.00;4999251;28;20073;-84
2022/06/25 02:49:28;;;;;;;5.18;4.78;;;;;;;17.64;100.00;100397.28;4996991;28;20131;-82
2022/06/25 02:51:55;;;;;;;5.35;4.88;;;;;;;17.59;100.00;100398.41;4997184;28;20068;-83
2022/06/25 02:54:22;;;;;;;6.30;5.70;;;;;;;17.56;100.00;100394.09;5012209;28;20050;-82
2022/06/25 02:59:34;;;;;;;5.80;5.30;;;;;;;17.55;100.00;100391.50;5013778;28;20046;-83
2022/06/25 03:02:00;;;;;;;6.75;6.15;;;;;;;17.55;100.00;100394.13;5011372;28;20044;-84
2022/06/25 03:04:27;;;;;;;6.15;5.10;;;;;;;17.57;100.00;100398.44;5007791;28;20042;-83
2022/06/25 03:06:53;;;;;;;6.50;5.85;;;;;;;17.61;100.00;100401.81;5008344;28;20423;-83
2022/06/25 03:09:20;;;;;;;7.00;6.32;;;;;;;17.68;100.00;100395.38;4995555;28;20045;-83
2022/06/25 03:11:48;;;;;;;6.20;5.43;;;;;;;17.73;100.00;100390.72;5008844;28;20049;-83
2022/06/25 03:14:15;;;;;;;7.60;5.57;;;;;;;17.81;100.00;100398.34;5019639;28;20865;-82
2022/06/25 03:16:42;;;;;;;5.85;5.20;;;;;;;17.83;100.00;100401.78;5004904;28;20045;-83
2022/06/25 03:19:10;;;;;;;5.57;5.10;;;;;;;17.85;100.00;100398.13;5024582;28;20164;-82
2022/06/25 03:21:38;;;;;;;5.45;4.90;;;;;;;17.84;100.00;100401.69;5025296;28;20057;-84
2022/06/25 03:24:06;;;;;;;5.57;5.07;;;;;;;17.82;100.00;100406.22;5022242;28;20054;-82
2022/06/25 03:26:33;;;;;;;7.30;6.60;;;;;;;17.76;100.00;100403.81;5011201;28;20048;-83
2022/06/25 03:29:01;;;;;;;6.75;6.13;;;;;;;17.70;100.00;100409.38;5024277;28;20050;-83
2022/06/25 03:31:28;;;;;;;6.07;5.47;;;;;;;17.65;100.00;100414.00;5014844;28;20146;-84
2022/06/25 03:33:55;;;;;;;4.97;4.68;;;;;;;17.61;100.00;100415.06;5012291;28;20049;-82
2022/06/25 03:36:24;;;;;;;5.90;5.43;;;;;;;17.60;100.00;100410.69;4993116;28;20050;-83
2022/06/25 03:38:53;;;;;;;6.70;5.45;;;;;;;17.61;100.00;100415.06;5006670;28;20041;-84
2022/06/25 03:41:36;;;;;;;7.30;5.97;;;;;;;17.64;100.00;100417.59;5007695;28;20054;-83
2022/06/25 03:44:14;;;;;;;5.85;5.35;;;;;;;17.77;100.00;100410.84;5005207;28;20046;-84
2022/06/25 03:46:42;;;;;;;5.47;5.05;;;;;;;17.92;100.00;100417.25;5027305;28;20485;-83
2022/06/25 03:49:09;;;;;;;5.95;5.38;;;;;;;18.03;100.00;100411.53;4994156;28;20077;-83
2022/06/25 03:51:36;;;;;;;5.43;5.00;;;;;;;18.11;100.00;100412.06;5001397;28;20496;-84
2022/06/25 03:54:04;;;;;;;5.25;4.80;;;;;;;18.20;100.00;100418.75;4985707;28;20042;-82
2022/06/25 03:56:31;;;;;;;4.30;4.00;;;;;;;18.27;99.55;100425.47;4989530;28;20045;-84
2022/06/25 03:58:57;;;;;;;4.63;4.22;;;;;;;18.35;98.82;100427.78;4989027;28;20517;-83
2022/06/25 04:01:24;;;;;;;4.60;4.18;;;;;;;18.40;98.80;100425.78;4990008;28;20984;-84
2022/06/25 04:03:51;;;;;;;4.45;4.05;;;;;;;18.45;98.14;100431.75;4973183;28;20046;-84
2022/06/25 04:06:19;;;;;;;4.18;3.78;;;;;;;18.44;97.51;100419.41;5007739;28;20064;-84
2022/06/25 04:08:48;;;;;;;5.22;3.67;;;;;;;18.46;97.44;100432.59;4993401;28;20436;-82
2022/06/25 04:11:15;;;;;;;4.20;3.80;;;;;;;18.47;97.35;100440.50;4976852;28;20782;-80
2022/06/25 04:13:42;;;;;;;4.38;4.03;;;;;;;18.47;97.02;100440.50;4990318;28;20050;-84
2022/06/25 04:16:12;;;;;;;4.88;4.47;;;;;;;18.48;96.46;100446.63;4996285;28;20050;-83
2022/06/25 04:18:39;;;;;;;5.57;4.43;;;;;;;18.50;96.26;100439.50;4993045;28;20084;-83
2022/06/25 04:21:06;;;;;;;4.97;4.18;;;;;;;18.54;95.60;100437.53;4991857;28;20539;-82
2022/06/25 04:23:33;;;;;;;3.95;3.58;;;;;;;18.57;95.30;100446.22;4993452;28;20128;-83
2022/06/25 04:25:59;;;;;;;3.85;3.60;;;;;;;18.64;95.18;100444.16;4974822;28;20037;-84
2022/06/25 04:31:14;;;;;;;2.83;2.72;;;;;;;18.78;94.21;100452.31;5014077;28;20037;-83
2022/06/25 04:33:44;;;;;;;3.35;2.28;;;;;;;18.87;93.54;100459.00;5016698;28;20118;-84
2022/06/25 04:36:11;;;;;;;3.38;3.08;;;;;;;18.95;92.48;100461.31;4997859;28;20050;-83
2022/06/25 04:38:40;;;;;;;3.35;3.05;;;;;;;19.01;92.07;100458.38;4996485;28;20161;-82
2022/06/25 04:41:08;;;;;;;3.55;3.28;;;;;;;19.07;91.42;100465.19;4976307;28;20553;-84
2022/06/25 04:43:37;;;;;;;4.32;2.70;;;;;;;19.08;90.78;100458.94;4995688;28;20081;-82
2022/06/25 04:46:07;;;;;;;3.00;2.80;;;;;;;19.10;90.30;100465.91;4995661;28;20141;-82
2022/06/25 04:48:34;;;;;;;2.88;2.70;;;;;;;19.15;89.23;100473.63;4994846;28;20046;-83
2022/06/25 04:51:11;;;;;;;3.00;2.80;;;;;;;19.12;89.33;100469.31;4996382;28;20401;-83
2022/06/25 04:56:19;;;;;;;3.97;3.65;;;;;;;19.18;88.92;100469.03;5000145;28;20507;-82
2022/06/25 04:58:46;;;;;;;2.38;2.28;;;;;;;19.24;88.48;100485.59;4999507;28;20741;-85
2022/06/25 05:01:14;;;;;;;2.92;2.30;;;;;;;19.31;88.11;100479.94;5003756;28;20068;-84
2022/06/25 05:03:55;;;;;;;3.03;2.85;;;;;;;19.38;87.59;100485.78;5016889;28;20059;-86
2022/06/25 05:06:22;;;;;;;2.67;2.58;;;;;;;19.44;87.08;100484.66;5014858;28;20048;-83
2022/06/25 05:08:49;;;;;;;3.92;2.92;;;;;;;19.53;87.05;100488.63;4998575;28;20060;-83
2022/06/25 05:11:17;;;;;;;2.58;2.38;;;;;;;19.62;86.27;100486.41;5015931;28;20044;-84
2022/06/25 05:13:46;;;;;;;2.92;2.72;;;;;;;19.73;85.90;100490.31;5017308;28;20187;-84
2022/06/25 05:16:13;;;;;;;2.65;1.98;;;;;;;19.85;84.84;100489.72;5002163;28;20045;-84
2022/06/25 05:18:39;;;;;;;2.13;2.03;;;;;;;19.96;83.83;100499.84;5017633;28;20656;-84
2022/06/25 05:21:07;;;;;;;2.70;1.92;;;;;;;20.05;83.76;100494.03;4997002;28;20211;-84
2022/06/25 05:23:34;;;;;;;2.53;1.90;;;;;;;20.16;82.78;100496.13;5032158;28;20135;-83
2022/06/25 05:26:02;;;;;;;2.47;2.10;;;;;;;20.25;81.75;100497.47;5013403;28;20426;-84
2022/06/25 05:28:32;;;;;;;2.20;2.10;;;;;;;20.36;80.94;100503.06;5012337;28;20068;-84
2022/06/25 05:30:59;;;;;;;2.17;2.05;;;;;;;20.49;79.68;100511.25;5034643;28;20051;-84
2022/06/25 05:33:25;;;;;;;1.77;1.67;;;;;;;20.62;79.14;100511.47;4996340;28;20046;-83
2022/06/25 05:35:55;;;;;;;2.53;2.00;;;;;;;20.74;77.81;100507.31;5009694;28;20068;-84
2022/06/25 05:38:22;;;;;;;2.63;1.85;;;;;;;20.81;76.95;100517.56;5010229;28;20095;-85
2022/06/25 05:40:49;;;;;;;3.08;1.85;;;;;;;20.87;76.85;100520.81;5014696;28;20037;-84
2022/06/25 05:43:16;;;;;;;1.90;1.67;;;;;;;20.95;76.02;100523.91;5014921;28;20047;-83
2022/06/25 05:45:43;;;;;;;4.18;1.80;;;;;;;21.08;75.49;100521.44;4997799;28;20049;-83
2022/06/25 05:48:11;;;;;;;4.82;2.42;;;;;;;21.22;73.98;100520.69;5011283;28;20124;-82
2022/06/25 05:50:39;;;;;;;2.03;1.95;;;;;;;21.28;73.59;100528.34;5011749;28;20048;-84
2022/06/25 05:53:11;;;;;;;2.80;2.03;;;;;;;21.33;72.58;100526.28;5013726;28;20060;-82
2022/06/25 05:55:38;;;;;;;1.77;1.60;;;;;;;21.35;72.81;100523.53;5010786;28;20037;-81
2022/06/25 05:58:07;;;;;;;1.42;1.33;;;;;;;21.45;71.64;100530.06;5021830;28;20047;-83
2022/06/25 06:00:33;;;;;;;2.03;1.90;;;;;;;21.49;71.41;100524.44;5041405;28;20816;-85
2022/06/25 06:03:00;;;;;;;2.08;1.98;;;;;;;21.56;70.72;100535.69;5036315;28;20045;-84
2022/06/25 06:05:27;;;;;;;5.55;2.35;;;;;;;21.54;71.29;100532.22;5019806;28;20056;-86
2022/06/25 06:07:54;;;;;;;1.70;1.60;;;;;;;21.57;70.84;100534.69;5018850;28;20049;-83
2022/06/25 06:10:24;;;;;;;1.83;1.73;;;;;;;21.53;71.04;100540.28;5031541;28;20059;-84
2022/06/25 06:12:51;;;;;;;1.60;1.50;;;;;;;21.43;70.40;100537.25;5008181;28;20069;-84
2022/06/25 06:15:28;;;;;;;1.38;1.30;;;;;;;21.24;70.51;100534.78;5035586;28;20042;-84
2022/06/25 06:17:57;;;;;;;1.98;1.77;;;;;;;20.99;71.51;100538.81;5014143;28;20567;-82
2022/06/25 06:20:30;;;;;;;1.50;1.45;;;;;;;20.81;73.17;100544.16;5030649;28;20226;-82
2022/06/25 06:23:03;;;;;;;5.03;3.10;;;;;;;20.77;74.06;100545.28;5009811;28;20384;-84
2022/06/25 06:25:31;;;;;;;3.28;1.75;;;;;;;20.73;74.05;100548.16;5007700;28;20041;-83
2022/06/25 06:27:58;;;;;;;1.67;1.58;;;;;;;20.65;74.25;100549.41;4990765;28;20053;-83
2022/06/25 06:30:24;;;;;;;1.42;1.35;;;;;;;20.56;74.80;100557.00;5012272;28;20052;-83
2022/06/25 06:35:32;;;;;;;1.90;1.80;;;;;;;20.45;76.01;100557.56;5014509;28;20033;-82
2022/06/25 06:38:01;;;;;;;2.88;1.70;;;;;;;20.41;76.27;100553.34;5016809;28;21035;-83
2022/06/25 06:40:28;;;;;;;1.80;1.70;;;;;;;20.41;76.37;100566.66;5016230;28;20045;-82
2022/06/25 06:42:55;;;;;;;1.85;1.75;;;;;;;20.47;75.38;100566.34;5035509;28;20042;-83
2022/06/25 06:45:23;;;;;;;8.05;1.52;;;;;;;20.45;74.54;100566.38;5005869;28;20053;-84
2022/06/25 06:47:53;;;;;;;1.85;1.58;;;;;;;20.44;74.83;100564.69;5031869;28;20048;-83
2022/06/25 06:50:26;;;;;;;1.30;1.30;;;;;;;20.55;74.41;100558.81;5022272;28;20132;-83
2022/06/25 06:53:00;;;;;;;1.60;1.45;;;;;;;20.61;73.74;100561.16;4998520;28;20144;-83
2022/06/25 06:55:27;;;;;;;2.15;1.50;;;;;;;20.71;73.72;100571.34;5006210;28;20492;-83
2022/06/25 06:58:04;;;;;;;2.47;1.27;;;;;;;20.66;73.71;100569.75;4990419;28;20045;-83
2022/06/25 07:00:32;;;;;;;2.22;1.40;;;;;;;20.74;73.28;100566.72;5007384;28;20045;-82
2022/06/25 07:02:59;;;;;;;1.55;1.50;;;;;;;20.79;71.85;100564.69;5006670;28;20224;-83
2022/06/25 07:05:43;;;;;;;1.55;1.30;;;;;;;20.75;72.56;100572.88;5025735;28;20044;-83
2022/06/25 07:08:21;;;;;;;1.88;1.70;;;;;;;20.84;72.55;100566.22;4990828;28;20056;-85
2022/06/25 07:13:51;;;;;;;1.75;1.50;;;;;;;21.05;70.55;100562.41;5010325;28;20123;-83
2022/06/25 07:16:19;;;;;;;1.35;1.00;;;;;;;21.14;69.06;100566.38;5008450;28;20050;-82
2022/06/25 07:21:38;;;;;;;1.00;0.93;;;;;;;21.16;69.61;100564.50;5020714;28;20041;-82
2022/06/25 07:24:07;;;;;;;1.45;1.35;;;;;;;21.29;69.34;100559.34;4991537;28;20045;-83
2022/06/25 07:26:38;;;;;;;1.75;1.13;;;;;;;21.48;68.91;100565.38;5023195;28;20144;-82
2022/06/25 07:29:11;;;;;;;1.35;1.33;;;;;;;21.78;67.25;100566.41;5009091;28;20117;-83
2022/06/25 07:31:42;;;;;;;0.93;0.93;;;;;;;22.22;65.75;100564.75;5021858;28;20038;-83
2022/06/25 07:34:15;;;;;;;1.60;1.20;;;;;;;22.66;63.65;100569.25;5021820;28;20042;-85
2022/06/25 07:37:19;;;;;;;1.08;1.08;;;;;;;23.17;61.79;100558.13;5014546;28;20041;-83
2022/06/25 07:40:00;;;;;;;0.85;0.85;;;;;;;23.85;59.59;100571.59;5034127;28;20108;-84
2022/06/25 07:42:29;;;;;;;2.15;1.10;;;;;;;24.34;57.66;100575.47;5018596;28;20049;-83
2022/06/25 07:45:03;;;;;;;2.60;1.02;;;;;;;24.88;57.12;100577.16;5017037;28;20042;-84
2022/06/25 07:47:41;;;;;;;1.00;1.00;;;;;;;25.70;54.05;100574.84;5020564;28;20496;-83
2022/06/25 07:52:58;;;;;;;0.98;0.98;;;;;;;26.47;51.54;100575.41;5013802;28;20265;-84
2022/06/25 07:55:30;;;;;;;0.88;0.88;;;;;;;26.91;50.18;100571.94;5010631;28;20046;-84
2022/06/25 07:58:01;;;;;;;5.35;0.73;;;;;;;27.27;48.98;100579.84;5029835;28;20045;-83
2022/06/25 08:00:28;;;;;;;0.80;0.80;;;;;;;27.37;47.87;100579.97;5018035;28;20046;-83
2022/06/25 08:03:10;;;;;;;0.73;0.70;;;;;;;27.68;47.79;100583.72;5015771;28;20057;-84
2022/06/25 08:05:43;;;;;;;1.65;0.80;;;;;;;28.15;46.07;100577.22;4995785;28;20057;-84
2022/06/25 08:08:10;;;;;;;1.42;0.90;;;;;;;28.55;45.17;100574.66;4994312;28;20057;-84
2022/06/25 08:10:40;;;;;;;3.72;1.30;;;;;;;29.16;43.32;100572.13;5011993;28;20109;-84
2022/06/25 08:13:33;;;;;;;;;;;;;;;;;;;;;
2022/06/25 08:16:11;;;;;;;3.10;0.70;;;;;;;29.91;40.97;100583.41;5012448;28;20261;-84
2022/06/25 08:18:40;;;;;;;0.88;0.70;;;;;;;29.90;40.01;100580.84;5011744;28;20056;-84
2022/06/25 08:21:23;;;;;;;2.63;0.85;;;;;;;29.95;40.63;100582.13;4997455;28;20136;-86
2022/06/25 08:23:51;;;;;;;0.70;0.65;;;;;;;30.20;39.96;100586.06;5010763;28;20385;-85
2022/06/25 08:26:20;;;;;;;1.67;0.98;;;;;;;30.42;39.47;100589.47;4991058;28;20042;-83
2022/06/25 08:28:47;;;;;;;0.50;0.50;;;;;;;31.00;39.29;100590.31;4994573;28;20046;-84
2022/06/25 08:31:17;;;;;;;2.20;0.70;;;;;;;31.76;37.68;100591.09;5007242;28;20077;-86
2022/06/25 08:33:46;;;;;;;1.13;0.50;;;;;;;32.48;36.13;100582.94;5001160;28;20044;-86
2022/06/25 08:36:13;;;;;;;0.60;0.60;;;;;;;32.81;35.69;100585.88;4989838;28;20069;-86
2022/06/25 08:38:40;;;;;;;3.17;1.10;;;;;;;33.19;33.84;100585.53;4990317;28;20054;-86
2022/06/25 08:41:08;;;;;;;0.70;0.60;;;;;;;33.23;33.24;100590.50;5009467;28;20049;-88
2022/06/25 08:43:37;;;;;;;0.73;0.50;;;;;;;33.29;33.92;100591.72;4995883;28;20060;-86
2022/06/25 08:46:05;;;;;;;2.80;0.70;;;;;;;32.87;32.77;100589.78;5011337;28;20057;-89
2022/06/25 08:48:36;;;;;;;3.53;0.20;;;;;;;32.22;32.88;100593.75;5011645;28;20395;-86
2022/06/25 08:51:03;;;;;;;0.77;0.77;;;;;;;31.92;33.98;100593.13;5010507;28;20368;-86
2022/06/25 08:53:35;;;;;;;0.77;0.50;;;;;;;31.88;33.26;100589.03;5014193;28;20045;-85
2022/06/25 08:56:05;;;;;;;1.35;0.70;;;;;;;31.79;33.82;100578.09;4996578;28;20052;-86
2022/06/25 08:58:32;;;;;;;1.42;0.60;;;;;;;32.69;33.25;100577.13;5019559;28;20033;-85
2022/06/25 09:01:00;;;;;;;1.13;0.82;;;;;;;33.48;32.23;100583.28;5009079;28;20072;-86
2022/06/25 09:03:30;;;;;;;0.50;0.50;;;;;;;34.07;31.03;100581.53;5032874;28;20041;-88
2022/06/25 09:06:13;;;;;;;0.50;0.47;;;;;;;33.97;30.20;100581.69;5032772;28;20042;-83
2022/06/25 09:08:45;;;;;;;1.85;1.10;;;;;;;32.70;32.36;100584.25;5024665;28;20041;-83
2022/06/25 09:11:13;;;;;;;2.35;0.68;;;;;;;30.80;35.50;100587.69;5012861;28;20037;-83
2022/06/25 09:13:43;;;;;;;1.00;0.50;;;;;;;30.72;35.93;100582.19;5036911;28;20037;-85
2022/06/25 09:16:25;;;;;;;3.05;0.60;;;;;;;32.05;33.69;100582.75;5018051;28;20040;-83
2022/06/25 09:18:59;;;;;;;0.90;0.50;;;;;;;33.36;32.78;100587.31;5010136;28;20040;-85
2022/06/25 09:21:26;;;;;;;1.77;0.47;;;;;;;33.84;29.99;100581.34;5023321;28;20057;-84
2022/06/25 09:24:03;;;;;;;1.40;0.52;;;;;;;34.43;29.67;100587.50;5010087;28;20053;-85
2022/06/25 09:26:35;;;;;;;0.70;0.70;;;;;;;35.11;28.81;100579.84;5022543;28;20041;-84
2022/06/25 09:29:05;;;;;;;1.90;0.90;;;;;;;33.90;30.37;100586.13;5037334;28;20041;-85
2022/06/25 09:31:39;;;;;;;0.75;0.60;;;;;;;33.48;30.45;100585.16;5026887;28;20370;-87
2022/06/25 09:34:09;;;;;;;1.30;0.88;;;;;;;34.15;29.74;100580.69;5036274;28;20049;-86
2022/06/25 09:36:37;;;;;;;0.88;0.45;;;;;;;34.57;29.46;100582.34;5022288;28;20037;-85
2022/06/25 09:39:05;;;;;;;0.88;0.88;;;;;;;34.00;29.29;100585.94;5040298;28;20043;-86
2022/06/25 09:41:53;;;;;;;0.85;0.35;;;;;;;33.18;30.61;100584.69;5036010;28;20054;-83
2022/06/25 09:44:21;;;;;;;0.73;0.50;;;;;;;33.78;29.91;100582.81;5015291;28;21004;-85
2022/06/25 09:47:01;;;;;;;1.98;0.80;;;;;;;34.25;29.51;100589.50;5019712;28;20418;-85
2022/06/25 09:49:28;;;;;;;1.50;0.82;;;;;;;33.20;30.68;100589.97;5034483;28;20122;-84
2022/06/25 09:52:13;;;;;;;0.98;0.80;;;;;;;32.52;31.12;100589.72;5016279;28;20053;-87
2022/06/25 09:57:22;;;;;;;2.00;0.70;;;;;;;34.13;29.71;100578.13;5013707;28;20126;-84
2022/06/25 09:59:51;;;;;;;2.85;0.70;;;;;;;35.72;27.37;100562.84;5025568;28;20110;-85
2022/06/25 10:02:20;;;;;;;0.38;0.38;;;;;;;36.73;26.15;100570.81;5013234;28;20056;-85
2022/06/25 10:04:50;;;;;;;1.95;0.80;;;;;;;36.67;26.58;100566.09;5027084;28;20468;-84
2022/06/25 10:07:17;;;;;;;0.80;0.80;;;;;;;35.33;27.52;100574.66;5007265;28;20048;-83
2022/06/25 10:09:44;;;;;;;0.75;0.68;;;;;;;33.51;30.65;100576.69;5025544;28;20108;-83
2022/06/25 10:12:21;;;;;;;0.60;0.60;;;;;;;31.99;32.81;100576.09;5014005;28;20048;-83
2022/06/25 10:14:48;;;;;;;1.95;0.65;;;;;;;31.22;33.86;100569.34;5024665;28;20045;-85
2022/06/25 10:17:15;;;;;;;0.65;0.60;;;;;;;32.47;32.31;100571.22;5005601;28;20480;-85
2022/06/25 10:19:42;;;;;;;1.05;0.50;;;;;;;33.96;30.57;100563.69;5001360;28;20547;-85
2022/06/25 10:22:12;;;;;;;4.70;0.60;;;;;;;35.20;28.42;100564.34;5035147;28;20046;-86
2022/06/25 10:24:39;;;;;;;0.75;0.40;;;;;;;36.34;27.13;100552.84;5013782;28;20061;-85
2022/06/25 10:27:15;;;;;;;1.13;0.40;;;;;;;37.45;25.99;100554.75;5019436;28;20121;-87
2022/06/25 10:29:56;;;;;;;2.72;0.55;;;;;;;38.87;23.76;100552.16;5018978;28;20068;-86
2022/06/25 10:32:28;;;;;;;0.50;0.40;;;;;;;39.23;22.75;100550.22;5032444;28;20503;-85
2022/06/25 10:35:04;;;;;;;2.33;0.43;;;;;;;38.76;23.16;100547.25;5013380;28;20140;-88
2022/06/25 10:38:09;;;;;;;2.45;0.68;;;;;;;39.24;22.11;100549.19;5011890;28;20136;-89
2022/06/25 10:43:58;;;;;;;0.32;0.30;;;;;;;37.82;24.05;100552.88;5001597;28;20045;-85
2022/06/25 10:46:36;;;;;;;0.65;0.40;;;;;;;37.50;23.83;100549.56;5017392;28;20053;-86
2022/06/25 10:49:19;;;;;;;0.40;0.40;;;;;;;37.77;23.62;100555.31;5015532;28;20921;-87
2022/06/25 10:51:54;;;;;;;2.08;0.45;;;;;;;38.95;22.79;100548.41;4995136;28;20062;-87
2022/06/25 10:54:24;;;;;;;2.70;0.38;;;;;;;39.40;21.91;100548.81;5012013;28;20054;-87
2022/06/25 10:56:56;;;;;;;0.50;0.40;;;;;;;39.20;22.20;100541.38;5033705;28;20121;-89
2022/06/25 10:59:35;;;;;;;1.80;0.50;;;;;;;40.13;20.89;100545.34;5014355;28;20054;-87
2022/06/25 11:02:10;;;;;;;0.60;0.40;;;;;;;40.12;21.55;100540.91;5018665;28;20647;-90
2022/06/25 11:04:52;;;;;;;0.70;0.70;;;;;;;37.50;23.99;100554.19;5015034;28;20160;-87
2022/06/25 11:07:23;;;;;;;2.00;0.50;;;;;;;35.74;26.44;100549.06;5017669;28;20504;-89
2022/06/25 11:09:59;;;;;;;2.92;0.40;;;;;;;36.22;25.85;100546.13;5034990;28;20050;-87
2022/06/25 11:12:34;;;;;;;0.35;0.35;;;;;;;36.99;25.17;100549.56;5020541;28;20136;-87
2022/06/25 11:15:09;;;;;;;0.50;0.40;;;;;;;36.67;25.56;100547.00;5002793;28;20041;-89
2022/06/25 11:17:37;;;;;;;1.13;0.60;;;;;;;36.53;25.05;100542.41;5003371;28;20041;-86
2022/06/25 11:20:14;;;;;;;0.50;0.40;;;;;;;34.97;26.30;100560.69;5013625;28;20186;-88
2022/06/25 11:22:55;;;;;;;2.33;0.73;;;;;;;34.64;27.24;100558.91;5015002;28;20060;-85
2022/06/25 11:30:52;;;;;;;2.30;0.52;;;;;;;34.97;26.62;100549.78;5017151;28;20438;-88
2022/06/25 11:33:20;;;;;;;1.10;0.82;;;;;;;36.54;25.02;100538.66;4999143;28;20042;-89
2022/06/25 11:35:50;;;;;;;0.98;0.45;;;;;;;37.46;24.23;100542.81;4994333;28;20084;-86
2022/06/25 11:38:23;;;;;;;1.15;0.70;;;;;;;36.02;25.80;100530.31;5011484;28;20103;-86
2022/06/25 11:40:52;;;;;;;;;;;;;;;33.91;27.80;100536.19;5014494;28;20431;-85
2022/06/25 11:43:22;;;;;;;1.25;0.57;;;;;;;32.50;30.16;100548.38;5011803;28;19925;-84
2022/06/25 11:45:56;;;;;;;1.88;0.60;;;;;;;31.64;31.57;100544.47;5013969;28;20052;-87
2022/06/25 11:48:30;;;;;;;0.73;0.73;;;;;;;30.97;32.87;100544.69;5009505;28;20104;-86
2022/06/25 11:51:00;;;;;;;0.63;0.55;;;;;;;30.47;33.54;100543.16;5013881;28;20046;-84
2022/06/25 11:53:31;;;;;;;0.70;0.70;;;;;;;30.10;34.51;100549.31;5012673;28;20058;-84
2022/06/25 11:56:08;;;;;;;1.48;0.80;;;;;;;29.89;34.88;100552.16;5002217;28;20329;-85
2022/06/25 11:58:42;;;;;;;1.60;0.57;;;;;;;30.28;34.13;100544.03;5019054;28;20065;-89
2022/06/25 12:01:15;;;;;;;2.22;0.50;;;;;;;32.73;30.85;100539.75;4998297;28;20061;-87
2022/06/25 12:04:09;;;;;;;0.47;0.47;;;;;;;35.49;27.30;100532.91;5019583;28;20052;-86
2022/06/25 12:06:51;;;;;;;3.22;0.77;;;;;;;38.58;23.89;100536.81;4983574;28;20057;-84
2022/06/25 12:09:23;;;;;;;0.73;0.73;;;;;;;40.42;21.15;100539.59;4999668;28;20046;-86
2022/06/25 12:12:06;;;;;;;0.43;0.38;;;;;;;40.60;21.43;100541.69;5020223;28;20054;-84
2022/06/25 12:14:36;;;;;;;0.95;0.47;;;;;;;39.59;22.42;100533.44;5023182;28;20037;-86
2022/06/25 12:17:06;;;;;;;0.63;0.63;;;;;;;40.06;20.76;100528.00;5003309;28;20132;-84